sensor_id;sensor_type;location;lat;lon;timestamp;pressure;altitude;pressure_sealevel;temperature;humidity
58471;BME280;44258;51.288;12.068;2023-01-31T00:02:17;100675.97;;;3.41;67.76
58471;BME280;44258;51.288;12.068;2023-01-31T00:04:43;100674.00;;;3.52;67.06
58471;BME280;44258;51.288;12.068;2023-01-31T00:07:10;100681.88;;;3.56;66.91
58471;BME280;44258;51.288;12.068;2023-01-31T00:09:36;100690.44;;;3.70;66.54
58471;BME280;44258;51.288;12.068;2023-01-31T00:12:03;100690.31;;;3.75;66.65
58471;BME280;44258;51.288;12.068;2023-01-31T00:14:29;100698.97;;;3.84;65.85
58471;BME280;44258;51.288;12.068;2023-01-31T00:16:56;100697.03;;;3.52;66.25
58471;BME280;44258;51.288;12.068;2023-01-31T00:19:24;100710.69;;;3.77;65.67
58471;BME280;44258;51.288;12.068;2023-01-31T00:21:52;100701.59;;;3.87;65.25
58471;BME280;44258;51.288;12.068;2023-01-31T00:24:19;100713.59;;;3.65;66.23
58471;BME280;44258;51.288;12.068;2023-01-31T00:26:45;100709.47;;;3.50;66.60
58471;BME280;44258;51.288;12.068;2023-01-31T00:29:13;100709.75;;;3.78;65.93
58471;BME280;44258;51.288;12.068;2023-01-31T00:31:39;100711.69;;;3.71;66.45
58471;BME280;44258;51.288;12.068;2023-01-31T00:34:06;100714.31;;;3.73;66.32
58471;BME280;44258;51.288;12.068;2023-01-31T00:36:35;100710.13;;;3.61;66.25
58471;BME280;44258;51.288;12.068;2023-01-31T00:39:03;100713.34;;;3.77;66.02
58471;BME280;44258;51.288;12.068;2023-01-31T00:41:30;100721.81;;;3.95;65.38
58471;BME280;44258;51.288;12.068;2023-01-31T00:43:59;100724.38;;;3.59;66.09
58471;BME280;44258;51.288;12.068;2023-01-31T00:46:27;100729.31;;;3.77;65.91
58471;BME280;44258;51.288;12.068;2023-01-31T00:48:53;100722.19;;;3.78;65.93
58471;BME280;44258;51.288;12.068;2023-01-31T00:51:21;100727.16;;;3.52;66.51
58471;BME280;44258;51.288;12.068;2023-01-31T00:53:50;100733.66;;;3.81;65.91
58471;BME280;44258;51.288;12.068;2023-01-31T00:56:19;100720.38;;;3.80;66.07
58471;BME280;44258;51.288;12.068;2023-01-31T00:58:47;100727.09;;;3.56;67.12
58471;BME280;44258;51.288;12.068;2023-01-31T01:01:15;100746.16;;;3.76;67.07
58471;BME280;44258;51.288;12.068;2023-01-31T01:03:43;100744.56;;;3.69;67.68
58471;BME280;44258;51.288;12.068;2023-01-31T01:06:10;100758.34;;;3.86;66.90
58471;BME280;44258;51.288;12.068;2023-01-31T01:08:39;100753.97;;;3.84;66.89
58471;BME280;44258;51.288;12.068;2023-01-31T01:11:09;100763.03;;;3.75;67.45
58471;BME280;44258;51.288;12.068;2023-01-31T01:13:37;100764.78;;;3.75;67.69
58471;BME280;44258;51.288;12.068;2023-01-31T01:16:05;100759.91;;;3.95;66.80
58471;BME280;44258;51.288;12.068;2023-01-31T01:18:33;100764.53;;;3.87;66.92
58471;BME280;44258;51.288;12.068;2023-01-31T01:21:05;100761.84;;;3.88;66.68
58471;BME280;44258;51.288;12.068;2023-01-31T01:23:32;100767.47;;;4.15;66.04
58471;BME280;44258;51.288;12.068;2023-01-31T01:25:58;100764.78;;;4.17;65.53
58471;BME280;44258;51.288;12.068;2023-01-31T01:28:32;100757.88;;;3.67;67.45
58471;BME280;44258;51.288;12.068;2023-01-31T01:30:59;100763.63;;;3.89;66.60
58471;BME280;44258;51.288;12.068;2023-01-31T01:33:30;100768.22;;;3.81;65.94
58471;BME280;44258;51.288;12.068;2023-01-31T01:35:59;100768.25;;;3.80;66.19
58471;BME280;44258;51.288;12.068;2023-01-31T01:38:25;100777.78;;;3.90;66.00
58471;BME280;44258;51.288;12.068;2023-01-31T01:40:52;100777.69;;;3.95;65.83
58471;BME280;44258;51.288;12.068;2023-01-31T01:43:18;100779.91;;;3.72;66.69
58471;BME280;44258;51.288;12.068;2023-01-31T01:45:46;100780.75;;;3.75;66.43
58471;BME280;44258;51.288;12.068;2023-01-31T01:48:15;100777.44;;;3.65;66.96
58471;BME280;44258;51.288;12.068;2023-01-31T01:50:44;100787.00;;;3.27;67.86
58471;BME280;44258;51.288;12.068;2023-01-31T01:53:15;100790.13;;;3.50;67.55
58471;BME280;44258;51.288;12.068;2023-01-31T01:55:46;100785.94;;;3.36;69.00
58471;BME280;44258;51.288;12.068;2023-01-31T01:58:17;100797.09;;;3.56;68.32
58471;BME280;44258;51.288;12.068;2023-01-31T02:00:47;100797.38;;;3.39;68.97
58471;BME280;44258;51.288;12.068;2023-01-31T02:03:15;100787.38;;;3.55;68.09
58471;BME280;44258;51.288;12.068;2023-01-31T02:05:46;100782.19;;;3.49;68.20
58471;BME280;44258;51.288;12.068;2023-01-31T02:08:15;100791.97;;;3.44;68.54
58471;BME280;44258;51.288;12.068;2023-01-31T02:10:47;100798.34;;;3.35;68.49
58471;BME280;44258;51.288;12.068;2023-01-31T02:13:15;100798.16;;;3.46;68.16
58471;BME280;44258;51.288;12.068;2023-01-31T02:15:42;100791.13;;;3.42;68.47
58471;BME280;44258;51.288;12.068;2023-01-31T02:18:10;100790.38;;;3.35;68.43
58471;BME280;44258;51.288;12.068;2023-01-31T02:24:01;100794.25;;;3.65;67.15
58471;BME280;44258;51.288;12.068;2023-01-31T02:26:57;100807.91;;;3.48;67.00
58471;BME280;44258;51.288;12.068;2023-01-31T02:29:57;100799.97;;;3.45;67.18
58471;BME280;44258;51.288;12.068;2023-01-31T02:32:46;100805.25;;;3.47;66.93
58471;BME280;44258;51.288;12.068;2023-01-31T02:35:22;100811.84;;;3.24;67.52
58471;BME280;44258;51.288;12.068;2023-01-31T02:37:58;100825.81;;;3.34;66.88
58471;BME280;44258;51.288;12.068;2023-01-31T02:40:34;100841.09;;;3.24;67.27
58471;BME280;44258;51.288;12.068;2023-01-31T02:43:07;100825.88;;;3.32;66.75
58471;BME280;44258;51.288;12.068;2023-01-31T02:45:39;100833.66;;;3.42;66.58
58471;BME280;44258;51.288;12.068;2023-01-31T02:48:16;100840.78;;;3.41;66.28
58471;BME280;44258;51.288;12.068;2023-01-31T02:50:48;100836.28;;;3.46;66.23
58471;BME280;44258;51.288;12.068;2023-01-31T02:53:20;100846.63;;;3.10;66.96
58471;BME280;44258;51.288;12.068;2023-01-31T02:55:54;100839.97;;;3.36;66.55
58471;BME280;44258;51.288;12.068;2023-01-31T02:58:46;100834.84;;;3.25;66.38
58471;BME280;44258;51.288;12.068;2023-01-31T03:01:17;100837.63;;;3.18;66.54
58471;BME280;44258;51.288;12.068;2023-01-31T03:03:50;100848.38;;;3.11;66.57
58471;BME280;44258;51.288;12.068;2023-01-31T03:06:49;100840.28;;;3.19;65.96
58471;BME280;44258;51.288;12.068;2023-01-31T03:09:31;100848.25;;;3.18;66.30
58471;BME280;44258;51.288;12.068;2023-01-31T03:12:11;100856.84;;;3.35;65.68
58471;BME280;44258;51.288;12.068;2023-01-31T03:14:47;100856.84;;;3.35;65.48
58471;BME280;44258;51.288;12.068;2023-01-31T03:17:22;100859.31;;;3.47;65.38
58471;BME280;44258;51.288;12.068;2023-01-31T03:20:02;100858.78;;;3.25;65.79
58471;BME280;44258;51.288;12.068;2023-01-31T03:22:33;100855.38;;;3.17;66.25
58471;BME280;44258;51.288;12.068;2023-01-31T03:25:03;100856.97;;;3.27;66.38
58471;BME280;44258;51.288;12.068;2023-01-31T03:27:30;100854.78;;;3.52;65.27
58471;BME280;44258;51.288;12.068;2023-01-31T03:30:01;100858.00;;;3.70;64.60
58471;BME280;44258;51.288;12.068;2023-01-31T03:32:34;100871.19;;;3.75;64.32
58471;BME280;44258;51.288;12.068;2023-01-31T03:35:06;100864.38;;;3.60;64.68
58471;BME280;44258;51.288;12.068;2023-01-31T03:37:36;100868.59;;;3.71;64.40
58471;BME280;44258;51.288;12.068;2023-01-31T03:40:10;100874.75;;;3.75;64.27
58471;BME280;44258;51.288;12.068;2023-01-31T03:42:42;100885.19;;;3.84;63.78
58471;BME280;44258;51.288;12.068;2023-01-31T03:45:14;100886.06;;;3.85;64.09
58471;BME280;44258;51.288;12.068;2023-01-31T03:47:46;100875.84;;;3.63;64.68
58471;BME280;44258;51.288;12.068;2023-01-31T03:50:18;100889.28;;;3.56;64.90
58471;BME280;44258;51.288;12.068;2023-01-31T03:52:50;100886.06;;;3.37;66.27
58471;BME280;44258;51.288;12.068;2023-01-31T03:55:23;100900.34;;;3.29;66.81
58471;BME280;44258;51.288;12.068;2023-01-31T03:57:54;100900.22;;;3.36;66.85
58471;BME280;44258;51.288;12.068;2023-01-31T04:00:24;100897.44;;;3.46;66.34
58471;BME280;44258;51.288;12.068;2023-01-31T04:02:55;100907.19;;;3.44;67.72
58471;BME280;44258;51.288;12.068;2023-01-31T04:05:26;100904.56;;;3.41;68.11
58471;BME280;44258;51.288;12.068;2023-01-31T04:07:56;100906.59;;;3.25;69.08
58471;BME280;44258;51.288;12.068;2023-01-31T04:10:23;100902.75;;;3.46;68.53
58471;BME280;44258;51.288;12.068;2023-01-31T04:12:51;100894.44;;;3.65;67.94
58471;BME280;44258;51.288;12.068;2023-01-31T04:15:19;100899.19;;;3.46;68.69
58471;BME280;44258;51.288;12.068;2023-01-31T04:17:46;100899.94;;;3.54;68.53
58471;BME280;44258;51.288;12.068;2023-01-31T04:20:12;100901.47;;;3.69;67.58
58471;BME280;44258;51.288;12.068;2023-01-31T04:22:40;100893.00;;;3.44;68.44
58471;BME280;44258;51.288;12.068;2023-01-31T04:25:07;100889.47;;;3.46;67.99
58471;BME280;44258;51.288;12.068;2023-01-31T04:27:34;100897.38;;;3.49;67.93
58471;BME280;44258;51.288;12.068;2023-01-31T04:30:01;100893.00;;;3.47;67.80
58471;BME280;44258;51.288;12.068;2023-01-31T04:32:28;100888.72;;;3.37;67.56
58471;BME280;44258;51.288;12.068;2023-01-31T04:34:55;100885.34;;;3.25;67.91
58471;BME280;44258;51.288;12.068;2023-01-31T04:37:21;100888.22;;;3.11;68.17
58471;BME280;44258;51.288;12.068;2023-01-31T04:39:49;100884.88;;;3.00;68.11
58471;BME280;44258;51.288;12.068;2023-01-31T04:42:17;100887.06;;;2.73;69.01
58471;BME280;44258;51.288;12.068;2023-01-31T04:44:43;100889.56;;;2.84;68.71
58471;BME280;44258;51.288;12.068;2023-01-31T04:47:09;100891.47;;;2.75;68.95
58471;BME280;44258;51.288;12.068;2023-01-31T04:49:36;100895.81;;;2.82;68.76
58471;BME280;44258;51.288;12.068;2023-01-31T04:52:03;100891.38;;;2.81;68.86
58471;BME280;44258;51.288;12.068;2023-01-31T04:54:29;100894.88;;;2.84;68.89
58471;BME280;44258;51.288;12.068;2023-01-31T04:56:57;100889.63;;;2.80;69.01
58471;BME280;44258;51.288;12.068;2023-01-31T04:59:24;100886.88;;;2.86;68.68
58471;BME280;44258;51.288;12.068;2023-01-31T05:01:50;100887.84;;;2.82;68.92
58471;BME280;44258;51.288;12.068;2023-01-31T05:04:17;100895.06;;;2.70;69.24
58471;BME280;44258;51.288;12.068;2023-01-31T05:06:43;100896.56;;;2.88;68.73
58471;BME280;44258;51.288;12.068;2023-01-31T05:09:10;100894.88;;;2.83;68.74
58471;BME280;44258;51.288;12.068;2023-01-31T05:11:37;100895.59;;;2.94;68.45
58471;BME280;44258;51.288;12.068;2023-01-31T05:14:05;100887.66;;;2.91;68.44
58471;BME280;44258;51.288;12.068;2023-01-31T05:16:32;100891.94;;;3.01;68.08
58471;BME280;44258;51.288;12.068;2023-01-31T05:18:59;100882.25;;;2.99;68.33
58471;BME280;44258;51.288;12.068;2023-01-31T05:21:27;100881.34;;;3.00;68.14
58471;BME280;44258;51.288;12.068;2023-01-31T05:23:53;100887.53;;;3.02;68.26
58471;BME280;44258;51.288;12.068;2023-01-31T05:26:20;100885.75;;;3.01;68.47
58471;BME280;44258;51.288;12.068;2023-01-31T05:28:47;100892.94;;;2.96;68.62
58471;BME280;44258;51.288;12.068;2023-01-31T05:31:14;100892.38;;;2.73;69.21
58471;BME280;44258;51.288;12.068;2023-01-31T05:33:41;100904.34;;;3.02;68.90
58471;BME280;44258;51.288;12.068;2023-01-31T05:36:09;100904.13;;;3.15;68.35
58471;BME280;44258;51.288;12.068;2023-01-31T05:38:35;100906.78;;;3.15;68.31
58471;BME280;44258;51.288;12.068;2023-01-31T05:41:04;100913.06;;;3.10;68.11
58471;BME280;44258;51.288;12.068;2023-01-31T05:43:30;100911.53;;;2.96;69.01
58471;BME280;44258;51.288;12.068;2023-01-31T05:45:57;100908.88;;;2.96;69.22
58471;BME280;44258;51.288;12.068;2023-01-31T05:48:25;100908.69;;;3.06;69.12
58471;BME280;44258;51.288;12.068;2023-01-31T05:50:51;100902.53;;;3.04;69.08
58471;BME280;44258;51.288;12.068;2023-01-31T05:53:18;100891.63;;;3.20;68.78
58471;BME280;44258;51.288;12.068;2023-01-31T05:55:46;100881.91;;;3.19;68.93
58471;BME280;44258;51.288;12.068;2023-01-31T05:58:14;100890.84;;;3.15;68.94
58471;BME280;44258;51.288;12.068;2023-01-31T06:00:40;100902.25;;;3.20;68.77
58471;BME280;44258;51.288;12.068;2023-01-31T06:03:07;100909.38;;;3.19;68.23
58471;BME280;44258;51.288;12.068;2023-01-31T06:05:35;100911.28;;;3.09;68.73
58471;BME280;44258;51.288;12.068;2023-01-31T06:08:01;100909.44;;;3.15;68.67
58471;BME280;44258;51.288;12.068;2023-01-31T06:10:28;100912.88;;;3.21;68.17
58471;BME280;44258;51.288;12.068;2023-01-31T06:12:55;100922.31;;;3.41;67.33
58471;BME280;44258;51.288;12.068;2023-01-31T06:15:25;100907.56;;;3.21;67.59
58471;BME280;44258;51.288;12.068;2023-01-31T06:17:52;100918.22;;;3.20;67.55
58471;BME280;44258;51.288;12.068;2023-01-31T06:20:18;100910.97;;;3.29;67.10
58471;BME280;44258;51.288;12.068;2023-01-31T06:22:46;100924.47;;;3.17;67.33
58471;BME280;44258;51.288;12.068;2023-01-31T06:25:13;100925.22;;;3.25;66.87
58471;BME280;44258;51.288;12.068;2023-01-31T06:27:39;100919.25;;;3.11;67.13
58471;BME280;44258;51.288;12.068;2023-01-31T06:30:07;100918.50;;;3.01;67.16
58471;BME280;44258;51.288;12.068;2023-01-31T06:32:34;100932.34;;;3.22;66.69
58471;BME280;44258;51.288;12.068;2023-01-31T06:35:01;100932.31;;;3.25;66.40
58471;BME280;44258;51.288;12.068;2023-01-31T06:37:28;100922.56;;;3.24;66.18
58471;BME280;44258;51.288;12.068;2023-01-31T06:39:56;100929.09;;;3.04;66.59
58471;BME280;44258;51.288;12.068;2023-01-31T06:42:23;100934.31;;;3.10;66.60
58471;BME280;44258;51.288;12.068;2023-01-31T06:44:50;100938.78;;;3.08;66.49
58471;BME280;44258;51.288;12.068;2023-01-31T06:47:17;100944.25;;;2.98;66.54
58471;BME280;44258;51.288;12.068;2023-01-31T06:49:44;100946.88;;;2.99;66.49
58471;BME280;44258;51.288;12.068;2023-01-31T06:52:10;100954.06;;;2.91;66.40
58471;BME280;44258;51.288;12.068;2023-01-31T06:54:37;100954.06;;;2.94;66.04
58471;BME280;44258;51.288;12.068;2023-01-31T06:57:05;100960.13;;;3.02;65.59
58471;BME280;44258;51.288;12.068;2023-01-31T06:59:32;100958.25;;;3.09;65.22
58471;BME280;44258;51.288;12.068;2023-01-31T07:01:58;100972.25;;;3.20;65.03
58471;BME280;44258;51.288;12.068;2023-01-31T07:04:25;100973.81;;;3.33;64.67
58471;BME280;44258;51.288;12.068;2023-01-31T07:06:51;100976.44;;;3.35;64.54
58471;BME280;44258;51.288;12.068;2023-01-31T07:09:18;100977.28;;;3.39;64.38
58471;BME280;44258;51.288;12.068;2023-01-31T07:11:44;100978.97;;;3.46;64.21
58471;BME280;44258;51.288;12.068;2023-01-31T07:14:15;100969.22;;;3.43;63.99
58471;BME280;44258;51.288;12.068;2023-01-31T07:16:42;100974.44;;;3.52;63.63
58471;BME280;44258;51.288;12.068;2023-01-31T07:19:08;100965.75;;;3.38;64.21
58471;BME280;44258;51.288;12.068;2023-01-31T07:21:35;100964.84;;;3.41;63.69
58471;BME280;44258;51.288;12.068;2023-01-31T07:24:02;100969.63;;;3.19;64.55
58471;BME280;44258;51.288;12.068;2023-01-31T07:26:29;100961.47;;;3.29;64.58
58471;BME280;44258;51.288;12.068;2023-01-31T07:28:55;100967.63;;;3.33;64.33
58471;BME280;44258;51.288;12.068;2023-01-31T07:31:23;100962.41;;;3.27;64.38
58471;BME280;44258;51.288;12.068;2023-01-31T07:33:49;100952.72;;;3.23;64.18
58471;BME280;44258;51.288;12.068;2023-01-31T07:36:16;100952.50;;;3.37;63.43
58471;BME280;44258;51.288;12.068;2023-01-31T07:38:44;100950.63;;;3.43;63.71
58471;BME280;44258;51.288;12.068;2023-01-31T07:41:10;100941.78;;;3.43;63.69
58471;BME280;44258;51.288;12.068;2023-01-31T07:43:37;100938.19;;;3.47;63.07
58471;BME280;44258;51.288;12.068;2023-01-31T07:46:05;100936.66;;;3.30;63.97
58471;BME280;44258;51.288;12.068;2023-01-31T07:48:34;100943.63;;;3.38;63.55
58471;BME280;44258;51.288;12.068;2023-01-31T07:51:01;100934.66;;;3.43;63.59
58471;BME280;44258;51.288;12.068;2023-01-31T07:53:30;100933.94;;;3.33;63.90
58471;BME280;44258;51.288;12.068;2023-01-31T07:56:04;100937.31;;;3.46;63.44
58471;BME280;44258;51.288;12.068;2023-01-31T07:58:33;100938.19;;;3.47;63.29
58471;BME280;44258;51.288;12.068;2023-01-31T08:01:00;100931.72;;;3.62;62.96
58471;BME280;44258;51.288;12.068;2023-01-31T08:03:45;100924.81;;;3.50;63.28
58471;BME280;44258;51.288;12.068;2023-01-31T08:06:13;100922.00;;;3.61;63.04
58471;BME280;44258;51.288;12.068;2023-01-31T08:08:41;100919.25;;;3.65;62.90
58471;BME280;44258;51.288;12.068;2023-01-31T08:11:08;100907.44;;;3.80;62.27
58471;BME280;44258;51.288;12.068;2023-01-31T08:13:35;100901.28;;;3.78;62.57
58471;BME280;44258;51.288;12.068;2023-01-31T08:16:03;100906.47;;;3.84;62.19
58471;BME280;44258;51.288;12.068;2023-01-31T08:18:30;100909.03;;;3.90;62.14
58471;BME280;44258;51.288;12.068;2023-01-31T08:20:58;100912.53;;;3.91;62.19
58471;BME280;44258;51.288;12.068;2023-01-31T08:23:25;100907.19;;;3.92;61.95
58471;BME280;44258;51.288;12.068;2023-01-31T08:25:58;100904.66;;;3.86;62.22
58471;BME280;44258;51.288;12.068;2023-01-31T08:28:25;100913.59;;;3.84;62.04
58471;BME280;44258;51.288;12.068;2023-01-31T08:30:51;100908.13;;;3.91;61.85
58471;BME280;44258;51.288;12.068;2023-01-31T08:33:18;100899.38;;;3.85;62.18
58471;BME280;44258;51.288;12.068;2023-01-31T08:35:44;100893.81;;;3.97;62.23
58471;BME280;44258;51.288;12.068;2023-01-31T08:38:12;100884.00;;;3.99;61.90
58471;BME280;44258;51.288;12.068;2023-01-31T08:40:39;100879.72;;;3.93;62.15
58471;BME280;44258;51.288;12.068;2023-01-31T08:43:05;100878.78;;;3.95;62.09
58471;BME280;44258;51.288;12.068;2023-01-31T08:45:32;100874.88;;;3.69;62.31
58471;BME280;44258;51.288;12.068;2023-01-31T08:47:59;100874.41;;;3.92;62.35
58471;BME280;44258;51.288;12.068;2023-01-31T08:50:29;100868.38;;;3.82;62.48
58471;BME280;44258;51.288;12.068;2023-01-31T08:52:59;100889.38;;;3.98;62.12
58471;BME280;44258;51.288;12.068;2023-01-31T08:55:28;100877.66;;;4.06;61.83
58471;BME280;44258;51.288;12.068;2023-01-31T08:57:56;100867.72;;;4.16;61.54
58471;BME280;44258;51.288;12.068;2023-01-31T09:00:23;100864.06;;;4.20;61.79
58471;BME280;44258;51.288;12.068;2023-01-31T09:02:50;100866.59;;;4.28;61.17
58471;BME280;44258;51.288;12.068;2023-01-31T09:05:18;100873.81;;;4.21;61.72
58471;BME280;44258;51.288;12.068;2023-01-31T09:07:44;100882.03;;;4.09;61.50
58471;BME280;44258;51.288;12.068;2023-01-31T09:10:11;100872.09;;;4.17;61.29
58471;BME280;44258;51.288;12.068;2023-01-31T09:12:39;100871.44;;;4.07;61.53
58471;BME280;44258;51.288;12.068;2023-01-31T09:15:07;100865.22;;;4.07;61.46
58471;BME280;44258;51.288;12.068;2023-01-31T09:17:33;100861.53;;;4.14;61.27
58471;BME280;44258;51.288;12.068;2023-01-31T09:20:00;100854.19;;;4.25;61.18
58471;BME280;44258;51.288;12.068;2023-01-31T09:22:30;100849.84;;;4.21;60.76
58471;BME280;44258;51.288;12.068;2023-01-31T09:24:58;100848.56;;;3.97;61.45
58471;BME280;44258;51.288;12.068;2023-01-31T09:27:24;100852.06;;;4.01;61.17
58471;BME280;44258;51.288;12.068;2023-01-31T09:29:52;100854.53;;;4.10;61.42
58471;BME280;44258;51.288;12.068;2023-01-31T09:32:19;100862.78;;;3.96;61.33
58471;BME280;44258;51.288;12.068;2023-01-31T09:34:46;100857.50;;;3.95;61.10
58471;BME280;44258;51.288;12.068;2023-01-31T09:37:13;100849.81;;;4.23;60.39
58471;BME280;44258;51.288;12.068;2023-01-31T09:39:39;100849.81;;;4.23;60.94
58471;BME280;44258;51.288;12.068;2023-01-31T09:42:16;100851.59;;;4.22;60.71
58471;BME280;44258;51.288;12.068;2023-01-31T09:44:52;100857.94;;;4.57;59.88
58471;BME280;44258;51.288;12.068;2023-01-31T09:47:25;100853.59;;;4.53;59.86
58471;BME280;44258;51.288;12.068;2023-01-31T09:49:55;100843.53;;;4.64;59.36
58471;BME280;44258;51.288;12.068;2023-01-31T09:52:24;100841.81;;;4.63;58.88
58471;BME280;44258;51.288;12.068;2023-01-31T09:54:52;100836.38;;;4.68;59.30
58471;BME280;44258;51.288;12.068;2023-01-31T09:57:28;100836.91;;;4.82;59.12
58471;BME280;44258;51.288;12.068;2023-01-31T10:00:07;100829.69;;;4.87;58.87
58471;BME280;44258;51.288;12.068;2023-01-31T10:02:56;100839.94;;;5.04;59.16
58471;BME280;44258;51.288;12.068;2023-01-31T10:05:30;100829.97;;;5.11;58.39
58471;BME280;44258;51.288;12.068;2023-01-31T10:08:12;100819.59;;;5.00;58.66
58471;BME280;44258;51.288;12.068;2023-01-31T10:10:44;100828.72;;;4.91;58.69
58471;BME280;44258;51.288;12.068;2023-01-31T10:13:16;100808.00;;;4.67;59.13
58471;BME280;44258;51.288;12.068;2023-01-31T10:15:48;100813.84;;;4.81;59.04
58471;BME280;44258;51.288;12.068;2023-01-31T10:18:22;100810.31;;;4.81;59.41
58471;BME280;44258;51.288;12.068;2023-01-31T10:20:53;100810.84;;;4.95;59.50
58471;BME280;44258;51.288;12.068;2023-01-31T10:23:25;100799.91;;;5.06;59.22
58471;BME280;44258;51.288;12.068;2023-01-31T10:25:56;100803.44;;;5.06;58.27
58471;BME280;44258;51.288;12.068;2023-01-31T10:28:29;100792.59;;;5.14;58.61
58471;BME280;44258;51.288;12.068;2023-01-31T10:31:02;100790.72;;;5.18;58.64
58471;BME280;44258;51.288;12.068;2023-01-31T10:33:38;100789.56;;;4.93;59.33
58471;BME280;44258;51.288;12.068;2023-01-31T10:36:13;100794.81;;;4.97;59.22
58471;BME280;44258;51.288;12.068;2023-01-31T10:38:50;100793.81;;;5.01;58.99
58471;BME280;44258;51.288;12.068;2023-01-31T10:41:28;100773.81;;;4.84;59.67
58471;BME280;44258;51.288;12.068;2023-01-31T10:44:00;100758.63;;;4.88;59.15
58471;BME280;44258;51.288;12.068;2023-01-31T10:46:29;100768.53;;;4.83;59.53
58471;BME280;44258;51.288;12.068;2023-01-31T10:48:57;100760.09;;;5.00;59.60
58471;BME280;44258;51.288;12.068;2023-01-31T10:51:48;100745.31;;;4.86;59.74
58471;BME280;44258;51.288;12.068;2023-01-31T10:54:39;100737.84;;;4.66;59.90
58471;BME280;44258;51.288;12.068;2023-01-31T10:57:15;100739.75;;;4.61;60.68
58471;BME280;44258;51.288;12.068;2023-01-31T10:59:49;100726.19;;;4.70;60.03
58471;BME280;44258;51.288;12.068;2023-01-31T11:02:19;100728.00;;;4.70;60.18
58471;BME280;44258;51.288;12.068;2023-01-31T11:04:50;100727.59;;;4.85;60.40
58471;BME280;44258;51.288;12.068;2023-01-31T11:07:21;100723.41;;;4.77;59.93
58471;BME280;44258;51.288;12.068;2023-01-31T11:09:49;100721.31;;;4.88;59.99
58471;BME280;44258;51.288;12.068;2023-01-31T11:12:19;100715.03;;;4.90;60.02
58471;BME280;44258;51.288;12.068;2023-01-31T11:15:03;100705.63;;;4.77;60.49
58471;BME280;44258;51.288;12.068;2023-01-31T11:17:32;100696.16;;;4.98;60.21
58471;BME280;44258;51.288;12.068;2023-01-31T11:20:04;100679.34;;;4.96;60.83
58471;BME280;44258;51.288;12.068;2023-01-31T11:22:35;100675.34;;;4.80;61.02
58471;BME280;44258;51.288;12.068;2023-01-31T11:25:03;100669.13;;;4.81;61.61
58471;BME280;44258;51.288;12.068;2023-01-31T11:27:38;100667.50;;;4.75;61.20
58471;BME280;44258;51.288;12.068;2023-01-31T11:30:06;100659.50;;;4.75;61.47
58471;BME280;44258;51.288;12.068;2023-01-31T11:32:44;100638.72;;;4.55;61.52
58471;BME280;44258;51.288;12.068;2023-01-31T11:35:26;100640.06;;;4.71;62.12
58471;BME280;44258;51.288;12.068;2023-01-31T11:37:58;100625.84;;;4.72;62.62
58471;BME280;44258;51.288;12.068;2023-01-31T11:40:28;100619.06;;;4.59;63.55
58471;BME280;44258;51.288;12.068;2023-01-31T11:42:58;100615.28;;;4.68;63.58
58471;BME280;44258;51.288;12.068;2023-01-31T11:45:26;100604.00;;;4.58;63.60
58471;BME280;44258;51.288;12.068;2023-01-31T11:47:56;100600.28;;;4.64;62.87
58471;BME280;44258;51.288;12.068;2023-01-31T11:50:30;100594.81;;;4.70;63.12
58471;BME280;44258;51.288;12.068;2023-01-31T11:53:03;100600.75;;;4.80;62.69
58471;BME280;44258;51.288;12.068;2023-01-31T11:55:35;100587.56;;;4.75;62.31
58471;BME280;44258;51.288;12.068;2023-01-31T11:58:08;100574.97;;;4.80;62.36
58471;BME280;44258;51.288;12.068;2023-01-31T12:00:53;100577.72;;;4.79;62.20
58471;BME280;44258;51.288;12.068;2023-01-31T12:03:21;100582.50;;;4.64;62.82
58471;BME280;44258;51.288;12.068;2023-01-31T12:05:57;100574.94;;;4.82;62.19
58471;BME280;44258;51.288;12.068;2023-01-31T12:08:27;100567.47;;;4.63;61.94
58471;BME280;44258;51.288;12.068;2023-01-31T12:10:55;100563.28;;;4.55;62.81
58471;BME280;44258;51.288;12.068;2023-01-31T12:13:23;100559.22;;;4.72;62.33
58471;BME280;44258;51.288;12.068;2023-01-31T12:15:52;100551.00;;;4.49;63.02
58471;BME280;44258;51.288;12.068;2023-01-31T12:18:31;100543.63;;;4.59;62.85
58471;BME280;44258;51.288;12.068;2023-01-31T12:21:08;100547.72;;;4.70;62.36
58471;BME280;44258;51.288;12.068;2023-01-31T12:23:45;100520.13;;;4.42;62.56
58471;BME280;44258;51.288;12.068;2023-01-31T12:26:21;100521.44;;;4.58;62.71
58471;BME280;44258;51.288;12.068;2023-01-31T12:29:07;100532.59;;;4.40;63.21
58471;BME280;44258;51.288;12.068;2023-01-31T12:32:07;100532.34;;;4.49;62.78
58471;BME280;44258;51.288;12.068;2023-01-31T12:37:54;100517.38;;;4.45;63.28
58471;BME280;44258;51.288;12.068;2023-01-31T12:40:33;100513.06;;;4.41;63.45
58471;BME280;44258;51.288;12.068;2023-01-31T12:43:13;100506.75;;;4.45;63.09
58471;BME280;44258;51.288;12.068;2023-01-31T12:45:58;100483.44;;;4.22;64.04
58471;BME280;44258;51.288;12.068;2023-01-31T12:48:48;100480.06;;;4.46;63.67
58471;BME280;44258;51.288;12.068;2023-01-31T12:51:32;100468.94;;;4.63;63.42
58471;BME280;44258;51.288;12.068;2023-01-31T12:54:18;100466.06;;;4.69;63.01
58471;BME280;44258;51.288;12.068;2023-01-31T12:56:57;100469.91;;;4.61;63.44
58471;BME280;44258;51.288;12.068;2023-01-31T12:59:38;100454.81;;;4.60;63.36
58471;BME280;44258;51.288;12.068;2023-01-31T13:02:22;100449.59;;;4.57;63.75
58471;BME280;44258;51.288;12.068;2023-01-31T13:04:55;100446.22;;;4.50;63.71
58471;BME280;44258;51.288;12.068;2023-01-31T13:07:29;100443.56;;;4.50;63.84
58471;BME280;44258;51.288;12.068;2023-01-31T13:10:04;100445.34;;;4.49;63.97
58471;BME280;44258;51.288;12.068;2023-01-31T13:12:34;100437.94;;;4.61;63.36
58471;BME280;44258;51.288;12.068;2023-01-31T13:15:05;100447.41;;;4.40;63.91